Overview Statistics Trail Chart Weather Telemetry Raw packets
 

This is the latest recevied weather packets stored in our database for station/object K7DC. If no packets are shown the sender has not sent any weather packets the latest 10 day(s).

<< 40 41 42 43 44 45 46 >>
Time Temp. Humidity Pressure Rain* Wind** Luminosity Snow
1788362646 30.56° C 51% 1018.4 hPa 0 mm - 372 W/m² -
1788362342 30° C 54% 1018.4 hPa 0 mm - 351 W/m² -
1788362037 30° C 55% 1018.1 hPa 0 mm - 76 W/m² -
1788361736 30° C 56% 1018.4 hPa 0 mm - 314 W/m² -
1788361433 29.44° C 56% 1018.4 hPa 0 mm - 83 W/m² -
1788361132 28.33° C 60% 1018.5 hPa 0 mm - 273 W/m² -
1788360828 28.33° C 61% 1018.4 hPa 0 mm - 252 W/m² -
1788360523 28.89° C 60% 1018.4 hPa 0 mm - 234 W/m² -
1788360218 29.44° C 59% 1018.2 hPa 0 mm - 215 W/m² -
1788359913 29.44° C 55% 1018.4 hPa 0 mm - 199 W/m² -
1788359613 29.44° C 56% 1018.3 hPa 0 mm - 179 W/m² -
1788359310 29.44° C 57% 1018.4 hPa 0 mm - 159 W/m² -
1788359005 28.33° C 60% 1018.3 hPa 0 mm - 145 W/m² -
1788358700 27.78° C 62% 1018.4 hPa 0 mm - 131 W/m² -
1788358396 26.67° C 65% 1018.4 hPa 0 mm - 115 W/m² -
1788358095 25.56° C 68% 1018.2 hPa 0 mm - 97 W/m² -
1788357791 25° C 69% 1018.2 hPa 0 mm - 86 W/m² -
1788357489 25° C 70% 1018.1 hPa 0 mm - 78 W/m² -
1788357186 24.44° C 72% 1017.9 hPa 0 mm - 68 W/m² -
1788356885 23.89° C 73% 1018.1 hPa 0 mm - 55 W/m² -
1788356581 23.33° C 75% 1018 hPa 0 mm - 38 W/m² -
1788356276 23.33° C 76% 1017.8 hPa 0 mm - 30 W/m² -
1788355988 23.33° C 76% 1017.8 hPa 0 mm - 25 W/m² -
1788355670 22.78° C 77% 1017.8 hPa 0 mm - 22 W/m² -
1788355366 22.78° C 78% 1018 hPa 0 mm - 18 W/m² -

* Rain latest hour (hover to see other rain measurements)
** Current wind speed in m/s (hover to see current wind gust speed)